Time;durP1;ratioP1;P1;durP2;ratioP2;P2;SDS_P1;SDS_P2;PMS_P1;PMS_P2;Temp;Humidity;BMP_temperature;BMP_pressure;BME280_temperature;BME280_humidity;BME280_pressure;Samples;Min_cycle;Max_cycle;Signal;HPM_P1;HPM_P2
2022/11/30 00:00:10;;;;;;;;;;;;;;;;;;5029237;28;20340;-67
2022/11/30 00:02:36;;;;;;;;;;;;;;;;;;5019100;28;19913;-67
2022/11/30 00:05:02;;;;;;;;;;;;;;;;;;5026308;28;20376;-67
2022/11/30 00:07:28;;;;;;;;;;;;;;;;;;5028376;28;19917;-67
2022/11/30 00:09:54;;;;;;;;;;;;;;;;;;5010350;28;19910;-68
2022/11/30 00:12:19;;;;;;;;;;;;;;;;;;5016542;28;20031;-68
2022/11/30 00:14:45;;;;;;;;;;;;;;;;;;5010444;28;19925;-67
2022/11/30 00:17:11;;;;;;;;;;;;;;;;;;5010274;28;19960;-67
2022/11/30 00:19:37;;;;;;;;;;;;;;;;;;5012062;28;19917;-67
2022/11/30 00:22:03;;;;;;;;;;;;;;;;;;5020902;28;19914;-68
2022/11/30 00:24:29;;;;;;;;;;;;;;;;;;5015680;28;20047;-67
2022/11/30 00:26:55;;;;;;;;;;;;;;;;;;5014511;28;20290;-68
2022/11/30 00:29:20;;;;;;;;;;;;;;;;;;5010040;28;19922;-67
2022/11/30 00:31:46;;;;;;;;;;;;;;;;;;5009953;28;20441;-66
2022/11/30 00:34:12;;;;;;;;;;;;;;;;;;5010312;28;19916;-66
2022/11/30 00:36:38;;;;;;;;;;;;;;;;;;5009924;28;20362;-67
2022/11/30 00:39:04;;;;;;;;;;;;;;;;;;5016364;28;19999;-67
2022/11/30 00:41:30;;;;;;;;;;;;;;;;;;5029352;28;19909;-67
2022/11/30 00:43:56;;;;;;;;;;;;;;;;;;5028887;28;19913;-66
2022/11/30 00:46:22;;;;;;;;;;;;;;;;;;5031726;28;19983;-67
2022/11/30 00:48:47;;;;;;;;;;;;;;;;;;5032982;28;20377;-67
2022/11/30 00:51:13;;;;;;;;;;;;;;;;;;5031767;28;20000;-67
2022/11/30 00:53:39;;;;;;;;;;;;;;;;;;5032668;28;19960;-67
2022/11/30 00:56:05;;;;;;;;;;;;;;;;;;5032465;28;19971;-67
2022/11/30 00:58:31;;;;;;;;;;;;;;;;;;5032780;28;20385;-67
2022/11/30 01:00:57;;;;;;;;;;;;;;;;;;5032376;28;19921;-67
2022/11/30 01:03:23;;;;;;;;;;;;;;;;;;5033083;28;19916;-66
2022/11/30 01:05:49;;;;;;;;;;;;;;;;;;5031913;28;19932;-66
2022/11/30 01:08:15;;;;;;;;;;;;;;;;;;5025071;28;19914;-66
2022/11/30 01:10:40;;;;;;;;;;;;;;;;;;5020290;28;20024;-67
2022/11/30 01:13:06;;;;;;;;;;;;;;;;;;5017122;28;19916;-66
2022/11/30 01:15:32;;;;;;;;;;;;;;;;;;5028371;28;20012;-67
2022/11/30 01:17:59;;;;;;;;;;;;;;;;;;5032169;28;19923;-67
2022/11/30 01:20:24;;;;;;;;;;;;;;;;;;5031977;28;19916;-66
2022/11/30 01:22:50;;;;;;;;;;;;;;;;;;5031863;28;19913;-67
2022/11/30 01:25:16;;;;;;;;;;;;;;;;;;5030719;28;19916;-67
2022/11/30 01:27:42;;;;;;;;;;;;;;;;;;5013085;28;19944;-67
2022/11/30 01:30:08;;;;;;;;;;;;;;;;;;5017714;28;19921;-67
2022/11/30 01:32:34;;;;;;;;;;;;;;;;;;5013076;28;19959;-67
2022/11/30 01:35:00;;;;;;;;;;;;;;;;;;5012764;28;19922;-67
2022/11/30 01:37:26;;;;;;;;;;;;;;;;;;5031896;28;19956;-67
2022/11/30 01:39:51;;;;;;;;;;;;;;;;;;5025717;28;19913;-69
2022/11/30 01:42:17;;;;;;;;;;;;;;;;;;5012653;28;20365;-68
2022/11/30 01:44:43;;;;;;;;;;;;;;;;;;5019447;28;19945;-68
2022/11/30 01:47:09;;;;;;;;;;;;;;;;;;5013068;28;20293;-68
2022/11/30 01:49:35;;;;;;;;;;;;;;;;;;5012310;28;19913;-68
2022/11/30 01:52:01;;;;;;;;;;;;;;;;;;5013292;28;20366;-68
2022/11/30 01:54:27;;;;;;;;;;;;;;;;;;5017616;28;19917;-68
2022/11/30 01:56:53;;;;;;;;;;;;;;;;;;5019278;28;20305;-68
2022/11/30 01:59:19;;;;;;;;;;;;;;;;;;5023110;28;19920;-68
2022/11/30 02:01:45;;;;;;;;;;;;;;;;;;5014473;28;19909;-68
2022/11/30 02:04:10;;;;;;;;;;;;;;;;;;5011967;28;19925;-67
2022/11/30 02:06:36;;;;;;;;;;;;;;;;;;5012694;28;20342;-67
2022/11/30 02:09:02;;;;;;;;;;;;;;;;;;5025232;28;20396;-68
2022/11/30 02:11:28;;;;;;;;;;;;;;;;;;5031234;28;20307;-68
2022/11/30 02:13:54;;;;;;;;;;;;;;;;;;5031289;28;19913;-68
2022/11/30 02:16:20;;;;;;;;;;;;;;;;;;5030997;28;20563;-69
2022/11/30 02:18:46;;;;;;;;;;;;;;;;;;5030726;28;19925;-68
2022/11/30 02:21:12;;;;;;;;;;;;;;;;;;5015886;28;19909;-67
2022/11/30 02:23:38;;;;;;;;;;;;;;;;;;5012020;28;20012;-66
2022/11/30 02:26:04;;;;;;;;;;;;;;;;;;5012214;28;19918;-67
2022/11/30 02:28:30;;;;;;;;;;;;;;;;;;5018173;28;19917;-67
2022/11/30 02:30:55;;;;;;;;;;;;;;;;;;5011687;28;19964;-67
2022/11/30 02:33:21;;;;;;;;;;;;;;;;;;5011476;28;19957;-67
2022/11/30 02:35:47;;;;;;;;;;;;;;;;;;5011434;28;19928;-69
2022/11/30 02:38:13;;;;;;;;;;;;;;;;;;5026547;28;19960;-68
2022/11/30 02:40:39;;;;;;;;;;;;;;;;;;5025062;28;19920;-69
2022/11/30 02:43:05;;;;;;;;;;;;;;;;;;5030345;28;19966;-67
2022/11/30 02:45:31;;;;;;;;;;;;;;;;;;5030712;28;20004;-67
2022/11/30 02:47:57;;;;;;;;;;;;;;;;;;5030094;28;19913;-68
2022/11/30 02:50:23;;;;;;;;;;;;;;;;;;5030193;28;19913;-66
2022/11/30 02:52:48;;;;;;;;;;;;;;;;;;5030221;28;20022;-69
2022/11/30 02:55:14;;;;;;;;;;;;;;;;;;5030460;28;19921;-68
2022/11/30 02:57:40;;;;;;;;;;;;;;;;;;5011948;28;19913;-68
2022/11/30 03:00:06;;;;;;;;;;;;;;;;;;5011630;28;19914;-68
2022/11/30 03:02:32;;;;;;;;;;;;;;;;;;5011353;28;20362;-67
2022/11/30 03:04:58;;;;;;;;;;;;;;;;;;5016539;28;20004;-69
2022/11/30 03:07:24;;;;;;;;;;;;;;;;;;5013429;28;19921;-68
2022/11/30 03:09:50;;;;;;;;;;;;;;;;;;5010875;28;20189;-69
2022/11/30 03:12:16;;;;;;;;;;;;;;;;;;5013750;28;20279;-68
2022/11/30 03:14:41;;;;;;;;;;;;;;;;;;5010785;28;19925;-68
2022/11/30 03:17:07;;;;;;;;;;;;;;;;;;5026408;28;20000;-68
2022/11/30 03:19:33;;;;;;;;;;;;;;;;;;5029809;28;20675;-68
2022/11/30 03:21:59;;;;;;;;;;;;;;;;;;5014408;28;19920;-68
2022/11/30 03:24:25;;;;;;;;;;;;;;;;;;5015638;28;20036;-68
2022/11/30 03:26:51;;;;;;;;;;;;;;;;;;5029433;28;19920;-68
2022/11/30 03:29:17;;;;;;;;;;;;;;;;;;5030177;28;19916;-68
2022/11/30 03:31:43;;;;;;;;;;;;;;;;;;5029176;28;19917;-68
2022/11/30 03:34:08;;;;;;;;;;;;;;;;;;5028474;28;20329;-68
2022/11/30 03:36:34;;;;;;;;;;;;;;;;;;5010846;28;19913;-69
2022/11/30 03:39:00;;;;;;;;;;;;;;;;;;5010718;28;20494;-68
2022/11/30 03:41:26;;;;;;;;;;;;;;;;;;5016565;28;19914;-68
2022/11/30 03:43:52;;;;;;;;;;;;;;;;;;5010732;28;19913;-69
2022/11/30 03:46:18;;;;;;;;;;;;;;;;;;5016469;28;19913;-68
2022/11/30 03:48:44;;;;;;;;;;;;;;;;;;5029518;28;19909;-69
2022/11/30 03:51:10;;;;;;;;;;;;;;;;;;5029561;28;20313;-68
2022/11/30 03:53:36;;;;;;;;;;;;;;;;;;5017118;28;20366;-68
2022/11/30 03:56:01;;;;;;;;;;;;;;;;;;5010489;28;20004;-68
2022/11/30 03:58:27;;;;;;;;;;;;;;;;;;5017909;28;19917;-67
2022/11/30 04:00:53;;;;;;;;;;;;;;;;;;5027914;28;19952;-67
2022/11/30 04:03:19;;;;;;;;;;;;;;;;;;5029209;28;19917;-66
2022/11/30 04:05:46;;;;;;;;;;;;;;;;;;5029287;28;20484;-67
2022/11/30 04:08:11;;;;;;;;;;;;;;;;;;5018788;28;19919;-67
2022/11/30 04:10:37;;;;;;;;;;;;;;;;;;5027276;28;20387;-66
2022/11/30 04:13:03;;;;;;;;;;;;;;;;;;5029180;28;19971;-66
2022/11/30 04:15:29;;;;;;;;;;;;;;;;;;5024873;28;20432;-67
2022/11/30 04:17:55;;;;;;;;;;;;;;;;;;5010046;28;19925;-67
2022/11/30 04:20:21;;;;;;;;;;;;;;;;;;5009836;28;19913;-68
2022/11/30 04:22:47;;;;;;;;;;;;;;;;;;5010068;28;19913;-68
2022/11/30 04:25:13;;;;;;;;;;;;;;;;;;5012500;28;20832;-67
2022/11/30 04:27:38;;;;;;;;;;;;;;;;;;5013014;28;19967;-67
2022/11/30 04:30:04;;;;;;;;;;;;;;;;;;5010764;28;19909;-67
2022/11/30 04:32:30;;;;;;;;;;;;;;;;;;5015915;28;19956;-68
2022/11/30 04:34:56;;;;;;;;;;;;;;;;;;5028668;28;19913;-68
2022/11/30 04:37:22;;;;;;;;;;;;;;;;;;5029049;28;19924;-68
2022/11/30 04:39:48;;;;;;;;;;;;;;;;;;5029095;28;19920;-68
2022/11/30 04:42:14;;;;;;;;;;;;;;;;;;5028599;28;19913;-67
2022/11/30 04:44:40;;;;;;;;;;;;;;;;;;5028869;28;19917;-68
2022/11/30 04:47:06;;;;;;;;;;;;;;;;;;5028696;28;20055;-68
2022/11/30 04:49:31;;;;;;;;;;;;;;;;;;5028756;28;19917;-68
2022/11/30 04:51:57;;;;;;;;;;;;;;;;;;5016139;28;19917;-68
2022/11/30 04:54:23;;;;;;;;;;;;;;;;;;5012866;28;19913;-68
2022/11/30 04:56:49;;;;;;;;;;;;;;;;;;5010424;28;19913;-68
2022/11/30 04:59:15;;;;;;;;;;;;;;;;;;5014273;28;19961;-68
2022/11/30 05:01:41;;;;;;;;;;;;;;;;;;5027365;28;19916;-68
2022/11/30 05:04:07;;;;;;;;;;;;;;;;;;5028236;28;19909;-68
2022/11/30 05:06:33;;;;;;;;;;;;;;;;;;5028437;28;19924;-68
2022/11/30 05:08:58;;;;;;;;;;;;;;;;;;5021980;28;19947;-67
2022/11/30 05:11:24;;;;;;;;;;;;;;;;;;5028757;28;19913;-67
2022/11/30 05:13:50;;;;;;;;;;;;;;;;;;5026763;28;19917;-67
2022/11/30 05:16:16;;;;;;;;;;;;;;;;;;5011907;28;19956;-67
2022/11/30 05:18:42;;;;;;;;;;;;;;;;;;5019540;28;20377;-67
2022/11/30 05:21:08;;;;;;;;;;;;;;;;;;5028056;28;19968;-66
2022/11/30 05:23:34;;;;;;;;;;;;;;;;;;5026940;28;19914;-66
2022/11/30 05:26:00;;;;;;;;;;;;;;;;;;5020538;28;19937;-66
2022/11/30 05:28:26;;;;;;;;;;;;;;;;;;5026222;28;19957;-66
2022/11/30 05:30:51;;;;;;;;;;;;;;;;;;5026134;28;19920;-64
2022/11/30 05:33:17;;;;;;;;;;;;;;;;;;5012038;28;19972;-66
2022/11/30 05:35:43;;;;;;;;;;;;;;;;;;5018612;28;19968;-68
2022/11/30 05:38:09;;;;;;;;;;;;;;;;;;5012611;28;19916;-67
2022/11/30 05:40:35;;;;;;;;;;;;;;;;;;5013019;28;19910;-66
2022/11/30 05:43:01;;;;;;;;;;;;;;;;;;5013036;28;19913;-66
2022/11/30 05:45:27;;;;;;;;;;;;;;;;;;5013060;28;20228;-67
2022/11/30 05:47:53;;;;;;;;;;;;;;;;;;5031609;28;19966;-66
2022/11/30 05:50:19;;;;;;;;;;;;;;;;;;5031522;28;20001;-66
2022/11/30 05:52:44;;;;;;;;;;;;;;;;;;5031751;28;19948;-66
2022/11/30 05:55:10;;;;;;;;;;;;;;;;;;5025416;28;20342;-66
2022/11/30 05:57:36;;;;;;;;;;;;;;;;;;5012135;28;19909;-67
2022/11/30 06:00:02;;;;;;;;;;;;;;;;;;5016208;28;19913;-67
2022/11/30 06:02:28;;;;;;;;;;;;;;;;;;5012626;28;19917;-67
2022/11/30 06:04:54;;;;;;;;;;;;;;;;;;5011800;28;20008;-66
2022/11/30 06:07:20;;;;;;;;;;;;;;;;;;5022597;28;19916;-67
2022/11/30 06:09:46;;;;;;;;;;;;;;;;;;5032459;28;19913;-67
2022/11/30 06:12:12;;;;;;;;;;;;;;;;;;5030858;28;20407;-67
2022/11/30 06:14:38;;;;;;;;;;;;;;;;;;5031017;28;19949;-67
2022/11/30 06:17:04;;;;;;;;;;;;;;;;;;5031046;28;19921;-67
2022/11/30 06:19:29;;;;;;;;;;;;;;;;;;5031065;28;19916;-67
2022/11/30 06:21:55;;;;;;;;;;;;;;;;;;5031123;28;19971;-67
2022/11/30 06:24:21;;;;;;;;;;;;;;;;;;5030849;28;19917;-66
2022/11/30 06:26:47;;;;;;;;;;;;;;;;;;5030597;28;19909;-66
2022/11/30 06:29:13;;;;;;;;;;;;;;;;;;5030644;28;19918;-66
2022/11/30 06:31:39;;;;;;;;;;;;;;;;;;5030866;28;19913;-66
2022/11/30 06:34:05;;;;;;;;;;;;;;;;;;5030815;28;19913;-67
2022/11/30 06:36:31;;;;;;;;;;;;;;;;;;5022257;28;19917;-66
2022/11/30 06:38:57;;;;;;;;;;;;;;;;;;5011480;28;19933;-67
2022/11/30 06:41:23;;;;;;;;;;;;;;;;;;5011742;28;19944;-66
2022/11/30 06:43:49;;;;;;;;;;;;;;;;;;5024535;28;19939;-67
2022/11/30 06:46:15;;;;;;;;;;;;;;;;;;5029588;28;20487;-67
2022/11/30 06:48:41;;;;;;;;;;;;;;;;;;5011501;28;19914;-67
2022/11/30 06:51:07;;;;;;;;;;;;;;;;;;5016518;28;19959;-67
2022/11/30 06:53:32;;;;;;;;;;;;;;;;;;5011378;28;19910;-67
2022/11/30 06:55:58;;;;;;;;;;;;;;;;;;5011713;28;19917;-67
2022/11/30 06:58:24;;;;;;;;;;;;;;;;;;5024107;28;19956;-67
2022/11/30 07:00:50;;;;;;;;;;;;;;;;;;5030315;28;19909;-68
2022/11/30 07:03:16;;;;;;;;;;;;;;;;;;5030192;28;19913;-67
2022/11/30 07:05:42;;;;;;;;;;;;;;;;;;5027470;28;19947;-67
2022/11/30 07:08:08;;;;;;;;;;;;;;;;;;5023573;28;19917;-67
2022/11/30 07:10:34;;;;;;;;;;;;;;;;;;5015785;28;20366;-71
2022/11/30 07:13:00;;;;;;;;;;;;;;;;;;5029861;28;19913;-71
2022/11/30 07:15:26;;;;;;;;;;;;;;;;;;5029687;28;19921;-68
2022/11/30 07:17:52;;;;;;;;;;;;;;;;;;5020958;28;19921;-68
2022/11/30 07:20:18;;;;;;;;;;;;;;;;;;5013984;28;20000;-68
2022/11/30 07:22:43;;;;;;;;;;;;;;;;;;5027364;28;19913;-68
2022/11/30 07:27:54;;;;;;;;;;;;;;;;;;5017204;28;19936;-69
2022/11/30 07:30:20;;;;;;;;;;;;;;;;;;5023548;28;20060;-67
2022/11/30 07:32:46;;;;;;;;;;;;;;;;;;5015595;28;20459;-69
2022/11/30 07:35:12;;;;;;;;;;;;;;;;;;5015124;28;19929;-68
2022/11/30 07:37:38;;;;;;;;;;;;;;;;;;5015406;28;19924;-68
2022/11/30 07:40:04;;;;;;;;;;;;;;;;;;5019735;28;20657;-68
2022/11/30 07:42:30;;;;;;;;;;;;;;;;;;5017757;28;19921;-70
2022/11/30 07:44:56;;;;;;;;;;;;;;;;;;5014634;28;19920;-68
2022/11/30 07:47:22;;;;;;;;;;;;;;;;;;5016775;28;20412;-70
2022/11/30 07:49:48;;;;;;;;;;;;;;;;;;5016697;28;19917;-69
2022/11/30 07:52:14;;;;;;;;;;;;;;;;;;5015017;28;19918;-70
2022/11/30 07:54:40;;;;;;;;;;;;;;;;;;5015776;28;20382;-71
2022/11/30 07:57:05;;;;;;;;;;;;;;;;;;5013117;28;20406;-70
2022/11/30 07:59:31;;;;;;;;;;;;;;;;;;5017501;28;19924;-68
2022/11/30 08:01:59;;;;;;;;;;;;;;;;;;5018581;28;20020;-70
2022/11/30 08:04:25;;;;;;;;;;;;;;;;;;5016599;28;19933;-70
2022/11/30 08:06:50;;;;;;;;;;;;;;;;;;5015179;28;19917;-68
2022/11/30 08:09:16;;;;;;;;;;;;;;;;;;5018868;28;19925;-68
2022/11/30 08:11:42;;;;;;;;;;;;;;;;;;5017583;28;19921;-70
2022/11/30 08:14:08;;;;;;;;;;;;;;;;;;5013820;28;19909;-67
2022/11/30 08:16:34;;;;;;;;;;;;;;;;;;5015194;28;19922;-69
2022/11/30 08:19:00;;;;;;;;;;;;;;;;;;5014531;28;19944;-68
2022/11/30 08:21:26;;;;;;;;;;;;;;;;;;5020180;28;19917;-70
2022/11/30 08:23:52;;;;;;;;;;;;;;;;;;5019152;28;19913;-70
2022/11/30 08:26:18;;;;;;;;;;;;;;;;;;5013148;28;19914;-69
2022/11/30 08:28:44;;;;;;;;;;;;;;;;;;5017622;28;19928;-68
2022/11/30 08:31:09;;;;;;;;;;;;;;;;;;5016905;28;20290;-67
2022/11/30 08:33:35;;;;;;;;;;;;;;;;;;5015631;28;20679;-71
2022/11/30 08:36:01;;;;;;;;;;;;;;;;;;5015652;28;19925;-71
2022/11/30 08:38:28;;;;;;;;;;;;;;;;;;5020367;28;20399;-70
2022/11/30 08:40:53;;;;;;;;;;;;;;;;;;5014527;28;19913;-71
2022/11/30 08:43:19;;;;;;;;;;;;;;;;;;5018880;28;19932;-70
2022/11/30 08:45:45;;;;;;;;;;;;;;;;;;5017125;28;20090;-70
2022/11/30 08:48:11;;;;;;;;;;;;;;;;;;5018686;28;19975;-70
2022/11/30 08:50:37;;;;;;;;;;;;;;;;;;5016756;28;19924;-68
2022/11/30 08:53:03;;;;;;;;;;;;;;;;;;5015963;28;20341;-70
2022/11/30 08:55:29;;;;;;;;;;;;;;;;;;5017782;28;19921;-69
2022/11/30 08:57:55;;;;;;;;;;;;;;;;;;5014927;28;20492;-70
2022/11/30 09:00:20;;;;;;;;;;;;;;;;;;5015557;28;19913;-70
2022/11/30 09:02:46;;;;;;;;;;;;;;;;;;5015716;28;19928;-69
2022/11/30 09:05:13;;;;;;;;;;;;;;;;;;5016059;28;20346;-71
2022/11/30 09:07:38;;;;;;;;;;;;;;;;;;5025154;28;20314;-70
2022/11/30 09:10:04;;;;;;;;;;;;;;;;;;5020796;28;19960;-71
2022/11/30 09:12:30;;;;;;;;;;;;;;;;;;5016910;28;19928;-70
2022/11/30 09:14:56;;;;;;;;;;;;;;;;;;5020878;28;19921;-68
2022/11/30 09:17:22;;;;;;;;;;;;;;;;;;5019559;28;20020;-70
2022/11/30 09:19:48;;;;;;;;;;;;;;;;;;5020559;28;19928;-68
2022/11/30 09:22:14;;;;;;;;;;;;;;;;;;5018269;28;19972;-70
2022/11/30 09:24:40;;;;;;;;;;;;;;;;;;5019227;28;19913;-70
2022/11/30 09:27:06;;;;;;;;;;;;;;;;;;5016274;28;19920;-70
2022/11/30 09:29:32;;;;;;;;;;;;;;;;;;5019401;28;19917;-70
2022/11/30 09:31:57;;;;;;;;;;;;;;;;;;5019960;28;20374;-70
2022/11/30 09:34:23;;;;;;;;;;;;;;;;;;5017161;28;19963;-70
2022/11/30 09:36:49;;;;;;;;;;;;;;;;;;5019009;28;20384;-71
2022/11/30 09:39:15;;;;;;;;;;;;;;;;;;5016782;28;20345;-69
2022/11/30 09:41:41;;;;;;;;;;;;;;;;;;5022375;28;19921;-70
2022/11/30 09:44:07;;;;;;;;;;;;;;;;;;5016401;28;19918;-70
2022/11/30 09:46:33;;;;;;;;;;;;;;;;;;5019604;28;20003;-70
2022/11/30 09:48:59;;;;;;;;;;;;;;;;;;5015759;28;19964;-69
2022/11/30 09:51:25;;;;;;;;;;;;;;;;;;5018060;28;19917;-69
2022/11/30 09:53:50;;;;;;;;;;;;;;;;;;5020606;28;19917;-72
2022/11/30 09:56:16;;;;;;;;;;;;;;;;;;5019794;28;19952;-71
2022/11/30 09:58:42;;;;;;;;;;;;;;;;;;5022908;28;20003;-72
2022/11/30 10:01:08;;;;;;;;;;;;;;;;;;5020957;28;20008;-71
2022/11/30 10:03:34;;;;;;;;;;;;;;;;;;5020643;28;19917;-69
2022/11/30 10:06:00;;;;;;;;;;;;;;;;;;5024094;28;22370;-71
2022/11/30 10:08:26;;;;;;;;;;;;;;;;;;5023003;28;20004;-69
2022/11/30 10:10:52;;;;;;;;;;;;;;;;;;5017757;28;19917;-71
2022/11/30 10:13:18;;;;;;;;;;;;;;;;;;5019277;28;20340;-69
2022/11/30 10:15:43;;;;;;;;;;;;;;;;;;5021819;28;19921;-71
2022/11/30 10:18:09;;;;;;;;;;;;;;;;;;5012924;28;20584;-71
2022/11/30 10:20:35;;;;;;;;;;;;;;;;;;5018739;28;19941;-71
2022/11/30 10:23:01;;;;;;;;;;;;;;;;;;5011882;28;20374;-71
2022/11/30 10:25:27;;;;;;;;;;;;;;;;;;5013848;28;19996;-71
2022/11/30 10:27:53;;;;;;;;;;;;;;;;;;5011958;28;20359;-71
2022/11/30 10:30:21;;;;;;;;;;;;;;;;;;5014091;28;19920;-71
2022/11/30 10:32:47;;;;;;;;;;;;;;;;;;5011555;28;19914;-71
2022/11/30 10:35:12;;;;;;;;;;;;;;;;;;5014680;28;19917;-70
2022/11/30 10:37:38;;;;;;;;;;;;;;;;;;5013805;28;19910;-71
2022/11/30 10:40:04;;;;;;;;;;;;;;;;;;5012022;28;19992;-70
2022/11/30 10:42:30;;;;;;;;;;;;;;;;;;5030102;28;19913;-71
2022/11/30 10:44:56;;;;;;;;;;;;;;;;;;5030400;28;19999;-71
2022/11/30 10:47:22;;;;;;;;;;;;;;;;;;5012517;28;20008;-70
2022/11/30 10:49:48;;;;;;;;;;;;;;;;;;5025143;28;19913;-71
2022/11/30 10:52:14;;;;;;;;;;;;;;;;;;5030509;28;20107;-68
2022/11/30 10:54:40;;;;;;;;;;;;;;;;;;5029898;28;19909;-70
2022/11/30 10:57:06;;;;;;;;;;;;;;;;;;5030480;28;19909;-71
2022/11/30 10:59:31;;;;;;;;;;;;;;;;;;5019005;28;19941;-69
2022/11/30 11:01:57;;;;;;;;;;;;;;;;;;5029804;28;19920;-69
2022/11/30 11:04:24;;;;;;;;;;;;;;;;;;5029948;28;19914;-69
2022/11/30 11:06:51;;;;;;;;;;;;;;;;;;5030745;28;19917;-69
2022/11/30 11:09:17;;;;;;;;;;;;;;;;;;5017817;28;20009;-68
2022/11/30 11:11:43;;;;;;;;;;;;;;;;;;5026284;28;20482;-68
2022/11/30 11:14:09;;;;;;;;;;;;;;;;;;5029914;28;20085;-69
2022/11/30 11:16:34;;;;;;;;;;;;;;;;;;5029591;28;19963;-66
2022/11/30 11:19:00;;;;;;;;;;;;;;;;;;5028137;28;19959;-71
2022/11/30 11:21:26;;;;;;;;;;;;;;;;;;5025299;28;20423;-69
2022/11/30 11:23:52;;;;;;;;;;;;;;;;;;5012295;28;19932;-68
2022/11/30 11:26:18;;;;;;;;;;;;;;;;;;5030003;28;19917;-70
2022/11/30 11:28:44;;;;;;;;;;;;;;;;;;5029386;28;20274;-70
2022/11/30 11:31:10;;;;;;;;;;;;;;;;;;5022205;28;19958;-68
2022/11/30 11:33:36;;;;;;;;;;;;;;;;;;5023635;28;19913;-68
2022/11/30 11:36:02;;;;;;;;;;;;;;;;;;5027873;28;19917;-70
2022/11/30 11:38:28;;;;;;;;;;;;;;;;;;5029555;28;20346;-70
2022/11/30 11:40:54;;;;;;;;;;;;;;;;;;5029105;28;19909;-70
2022/11/30 11:43:20;;;;;;;;;;;;;;;;;;5028805;28;20332;-69
2022/11/30 11:45:46;;;;;;;;;;;;;;;;;;5028608;28;19928;-70
2022/11/30 11:48:11;;;;;;;;;;;;;;;;;;5029199;28;19959;-70
2022/11/30 11:50:37;;;;;;;;;;;;;;;;;;5028970;28;19909;-70
2022/11/30 11:53:03;;;;;;;;;;;;;;;;;;5011120;28;19916;-68
2022/11/30 11:55:29;;;;;;;;;;;;;;;;;;5014599;28;20028;-71
2022/11/30 11:57:56;;;;;;;;;;;;;;;;;;5028773;28;19913;-68
2022/11/30 12:00:24;;;;;;;;;;;;;;;;;;5029640;28;19913;-71
2022/11/30 12:02:50;;;;;;;;;;;;;;;;;;5029161;28;19927;-71
2022/11/30 12:05:15;;;;;;;;;;;;;;;;;;5028658;28;19925;-70
2022/11/30 12:07:41;;;;;;;;;;;;;;;;;;5029249;28;19921;-71
2022/11/30 12:10:07;;;;;;;;;;;;;;;;;;5013416;28;20393;-68
2022/11/30 12:12:34;;;;;;;;;;;;;;;;;;5029291;28;19948;-70
2022/11/30 12:15:00;;;;;;;;;;;;;;;;;;5028733;28;19913;-70
2022/11/30 12:17:26;;;;;;;;;;;;;;;;;;5028607;28;19924;-70
2022/11/30 12:19:52;;;;;;;;;;;;;;;;;;5028836;28;19914;-70
2022/11/30 12:22:17;;;;;;;;;;;;;;;;;;5028769;28;19960;-71
2022/11/30 12:24:43;;;;;;;;;;;;;;;;;;5028659;28;20020;-71
2022/11/30 12:27:09;;;;;;;;;;;;;;;;;;5028664;28;20381;-72
2022/11/30 12:29:35;;;;;;;;;;;;;;;;;;5028596;28;20059;-70
2022/11/30 12:32:01;;;;;;;;;;;;;;;;;;5029085;28;20400;-71
2022/11/30 12:34:27;;;;;;;;;;;;;;;;;;5028611;28;19913;-72
2022/11/30 12:36:53;;;;;;;;;;;;;;;;;;5021614;28;19967;-71
2022/11/30 12:39:19;;;;;;;;;;;;;;;;;;5009767;28;20233;-71
2022/11/30 12:41:45;;;;;;;;;;;;;;;;;;5018010;28;19917;-71
2022/11/30 12:44:11;;;;;;;;;;;;;;;;;;5032959;28;19916;-71
2022/11/30 12:46:36;;;;;;;;;;;;;;;;;;5033055;28;20330;-71
2022/11/30 12:49:02;;;;;;;;;;;;;;;;;;5033153;28;19917;-70
2022/11/30 12:51:28;;;;;;;;;;;;;;;;;;5032355;28;20329;-70
2022/11/30 12:53:54;;;;;;;;;;;;;;;;;;5032632;28;19960;-70
2022/11/30 12:56:21;;;;;;;;;;;;;;;;;;5032506;28;20008;-71
2022/11/30 12:58:47;;;;;;;;;;;;;;;;;;5032641;28;19909;-70
2022/11/30 13:01:13;;;;;;;;;;;;;;;;;;5027412;28;19917;-70
2022/11/30 13:03:40;;;;;;;;;;;;;;;;;;5013728;28;20416;-70
2022/11/30 13:06:06;;;;;;;;;;;;;;;;;;5031293;28;20382;-70
2022/11/30 13:08:32;;;;;;;;;;;;;;;;;;5024895;28;20004;-70
2022/11/30 13:10:58;;;;;;;;;;;;;;;;;;5023330;28;19916;-70
2022/11/30 13:13:27;;;;;;;;;;;;;;;;;;5032793;28;20420;-71
2022/11/30 13:15:53;;;;;;;;;;;;;;;;;;5024348;28;19980;-71
2022/11/30 13:18:19;;;;;;;;;;;;;;;;;;5024980;28;20378;-70
2022/11/30 13:20:45;;;;;;;;;;;;;;;;;;5021166;28;20382;-71
2022/11/30 13:23:10;;;;;;;;;;;;;;;;;;5018392;28;19917;-71
2022/11/30 13:25:37;;;;;;;;;;;;;;;;;;5020423;28;19913;-71
2022/11/30 13:28:02;;;;;;;;;;;;;;;;;;5018956;28;20976;-70
2022/11/30 13:30:28;;;;;;;;;;;;;;;;;;5020801;28;19913;-71
2022/11/30 13:32:54;;;;;;;;;;;;;;;;;;5019013;28;19925;-70
2022/11/30 13:35:20;;;;;;;;;;;;;;;;;;5017824;28;20378;-70
2022/11/30 13:37:46;;;;;;;;;;;;;;;;;;5014761;28;19932;-68
2022/11/30 13:40:12;;;;;;;;;;;;;;;;;;5017741;28;20016;-70
2022/11/30 13:42:38;;;;;;;;;;;;;;;;;;5016274;28;19967;-70
2022/11/30 13:45:04;;;;;;;;;;;;;;;;;;5015940;28;19925;-69
2022/11/30 13:47:30;;;;;;;;;;;;;;;;;;5022911;28;19913;-70
2022/11/30 13:49:56;;;;;;;;;;;;;;;;;;5019177;28;19963;-70
2022/11/30 13:52:21;;;;;;;;;;;;;;;;;;5019042;28;19917;-70
2022/11/30 13:54:49;;;;;;;;;;;;;;;;;;5017544;28;19924;-70
2022/11/30 13:57:15;;;;;;;;;;;;;;;;;;5019558;28;19925;-68
2022/11/30 13:59:41;;;;;;;;;;;;;;;;;;5023302;28;19913;-70
2022/11/30 14:02:07;;;;;;;;;;;;;;;;;;5019534;28;19963;-71
2022/11/30 14:04:32;;;;;;;;;;;;;;;;;;5022826;28;19922;-70
2022/11/30 14:06:59;;;;;;;;;;;;;;;;;;5018634;28;20020;-70
2022/11/30 14:09:25;;;;;;;;;;;;;;;;;;5019073;28;19944;-70
2022/11/30 14:11:51;;;;;;;;;;;;;;;;;;5020057;28;19995;-69
2022/11/30 14:14:17;;;;;;;;;;;;;;;;;;5025071;28;19917;-71
2022/11/30 14:16:43;;;;;;;;;;;;;;;;;;5017695;28;19925;-69
2022/11/30 14:19:08;;;;;;;;;;;;;;;;;;5017241;28;19957;-70
2022/11/30 14:21:35;;;;;;;;;;;;;;;;;;5015862;28;19917;-69
2022/11/30 14:24:01;;;;;;;;;;;;;;;;;;5020660;28;20004;-70
2022/11/30 14:26:27;;;;;;;;;;;;;;;;;;5019371;28;19995;-68
2022/11/30 14:28:53;;;;;;;;;;;;;;;;;;5017109;28;19997;-69
2022/11/30 14:31:19;;;;;;;;;;;;;;;;;;5016185;28;19917;-70
2022/11/30 14:33:45;;;;;;;;;;;;;;;;;;5018366;28;20596;-70
2022/11/30 14:36:11;;;;;;;;;;;;;;;;;;5020375;28;19975;-70
2022/11/30 14:38:37;;;;;;;;;;;;;;;;;;5025088;28;20391;-70
2022/11/30 14:41:02;;;;;;;;;;;;;;;;;;5019070;28;19921;-69
2022/11/30 14:43:28;;;;;;;;;;;;;;;;;;5051389;28;19924;-70
2022/11/30 14:45:54;;;;;;;;;;;;;;;;;;5017461;28;20393;-69
2022/11/30 14:48:21;;;;;;;;;;;;;;;;;;5017866;28;19918;-70
2022/11/30 14:50:46;;;;;;;;;;;;;;;;;;5024761;28;19925;-68
2022/11/30 14:53:12;;;;;;;;;;;;;;;;;;5023125;28;19914;-66
2022/11/30 14:55:38;;;;;;;;;;;;;;;;;;5016212;28;20667;-69
2022/11/30 14:58:04;;;;;;;;;;;;;;;;;;5018507;28;19918;-68
2022/11/30 15:00:30;;;;;;;;;;;;;;;;;;5020379;28;19960;-68
2022/11/30 15:02:56;;;;;;;;;;;;;;;;;;5019277;28;19952;-67
2022/11/30 15:05:22;;;;;;;;;;;;;;;;;;5024231;28;19925;-68
2022/11/30 15:07:48;;;;;;;;;;;;;;;;;;5012935;28;19917;-67
2022/11/30 15:10:14;;;;;;;;;;;;;;;;;;5016711;28;19963;-68
2022/11/30 15:12:40;;;;;;;;;;;;;;;;;;5018621;28;19917;-68
2022/11/30 15:15:06;;;;;;;;;;;;;;;;;;5017547;28;19947;-69
2022/11/30 15:17:32;;;;;;;;;;;;;;;;;;5016165;28;19925;-68
2022/11/30 15:19:58;;;;;;;;;;;;;;;;;;5022146;28;20403;-67
2022/11/30 15:22:24;;;;;;;;;;;;;;;;;;5022901;28;19966;-67
2022/11/30 15:24:50;;;;;;;;;;;;;;;;;;5018509;28;19925;-68
2022/11/30 15:27:16;;;;;;;;;;;;;;;;;;5019555;28;19999;-68
2022/11/30 15:29:41;;;;;;;;;;;;;;;;;;5021661;28;19913;-68
2022/11/30 15:32:07;;;;;;;;;;;;;;;;;;5016814;28;19976;-70
2022/11/30 15:34:33;;;;;;;;;;;;;;;;;;5014812;28;19909;-68
2022/11/30 15:36:59;;;;;;;;;;;;;;;;;;5018862;28;20009;-68
2022/11/30 15:39:25;;;;;;;;;;;;;;;;;;5015994;28;19913;-69
2022/11/30 15:41:51;;;;;;;;;;;;;;;;;;5016835;28;19917;-67
2022/11/30 15:44:17;;;;;;;;;;;;;;;;;;5016405;28;19918;-68
2022/11/30 15:46:43;;;;;;;;;;;;;;;;;;5015432;28;20030;-69
2022/11/30 15:49:08;;;;;;;;;;;;;;;;;;5016683;28;19924;-69
2022/11/30 15:51:34;;;;;;;;;;;;;;;;;;5017173;28;19940;-70
2022/11/30 15:54:00;;;;;;;;;;;;;;;;;;5014352;28;19971;-69
2022/11/30 15:56:26;;;;;;;;;;;;;;;;;;5016485;28;19921;-70
2022/11/30 15:58:52;;;;;;;;;;;;;;;;;;5015407;28;20004;-70
2022/11/30 16:01:19;;;;;;;;;;;;;;;;;;5019892;28;20859;-69
2022/11/30 16:03:45;;;;;;;;;;;;;;;;;;5016967;28;19909;-69
2022/11/30 16:06:11;;;;;;;;;;;;;;;;;;5019337;28;19980;-70
2022/11/30 16:08:37;;;;;;;;;;;;;;;;;;5013091;28;20480;-69
2022/11/30 16:11:02;;;;;;;;;;;;;;;;;;5015438;28;20138;-69
2022/11/30 16:13:29;;;;;;;;;;;;;;;;;;5016952;28;20562;-69
2022/11/30 16:15:56;;;;;;;;;;;;;;;;;;5018886;28;19926;-70
2022/11/30 16:18:22;;;;;;;;;;;;;;;;;;5017472;28;20007;-66
2022/11/30 16:20:47;;;;;;;;;;;;;;;;;;5017092;28;20020;-69
2022/11/30 16:23:14;;;;;;;;;;;;;;;;;;5019350;28;20003;-69
2022/11/30 16:25:40;;;;;;;;;;;;;;;;;;5013160;28;19914;-67
2022/11/30 16:28:06;;;;;;;;;;;;;;;;;;5013226;28;19986;-69
2022/11/30 16:30:32;;;;;;;;;;;;;;;;;;5017039;28;19921;-68
2022/11/30 16:32:58;;;;;;;;;;;;;;;;;;5015754;28;20429;-68
2022/11/30 16:35:24;;;;;;;;;;;;;;;;;;5014196;28;20016;-68
2022/11/30 16:37:50;;;;;;;;;;;;;;;;;;5017897;28;20051;-69